Time;durP1;ratioP1;P1;durP2;ratioP2;P2;SDS_P1;SDS_P2;PMS_P1;PMS_P2;Temp;Humidity;BMP_temperature;BMP_pressure;BME280_temperature;BME280_humidity;BME280_pressure;Samples;Min_cycle;Max_cycle;Signal;HPM_P1;HPM_P2
2022/04/15 00:01:21;;;;;;;43.67;18.67;;;;;;;;;;5090759;28;20097;-65
2022/04/15 00:03:47;;;;;;;43.03;19.93;;;;;;;;;;5090605;28;20123;-65
2022/04/15 00:06:14;;;;;;;46.17;19.40;;;;;;;;;;5091668;28;20059;-65
2022/04/15 00:08:40;;;;;;;52.90;21.07;;;;;;;;;;5098369;28;20040;-65
2022/04/15 00:11:07;;;;;;;42.00;18.07;;;;;;;;;;5090948;28;20504;-65
2022/04/15 00:13:33;;;;;;;46.80;20.60;;;;;;;;;;5095417;28;20093;-65
2022/04/15 00:15:59;;;;;;;43.10;19.80;;;;;;;;;;5102123;28;20421;-65
2022/04/15 00:18:26;;;;;;;38.90;17.53;;;;;;;;;;5098658;28;20048;-65
2022/04/15 00:20:53;;;;;;;40.57;20.63;;;;;;;;;;5090360;28;20047;-64
2022/04/15 00:23:22;;;;;;;41.87;19.17;;;;;;;;;;5100072;28;20459;-64
2022/04/15 00:25:48;;;;;;;50.67;20.73;;;;;;;;;;5101869;28;20455;-64
2022/04/15 00:28:14;;;;;;;37.83;19.33;;;;;;;;;;5101096;28;20046;-64
2022/04/15 00:30:40;;;;;;;42.23;19.37;;;;;;;;;;5091211;28;20413;-64
2022/04/15 00:33:06;;;;;;;39.20;18.33;;;;;;;;;;5089726;28;20123;-64
2022/04/15 00:35:32;;;;;;;42.17;17.17;;;;;;;;;;5089515;28;20043;-65
2022/04/15 00:37:58;;;;;;;51.00;21.27;;;;;;;;;;5095137;28;20061;-64
2022/04/15 00:40:24;;;;;;;50.57;19.83;;;;;;;;;;5099351;28;20055;-65
2022/04/15 00:42:50;;;;;;;38.73;18.87;;;;;;;;;;5097675;28;20410;-65
2022/04/15 00:45:16;;;;;;;36.23;16.97;;;;;;;;;;5102596;28;20035;-65
2022/04/15 00:47:52;;;;;;;39.33;17.87;;;;;;;;;;5098667;28;20044;-65
2022/04/15 00:50:22;;;;;;;44.93;19.83;;;;;;;;;;5089779;28;20044;-64
2022/04/15 00:52:49;;;;;;;36.20;16.97;;;;;;;;;;5108194;28;21344;-64
2022/04/15 00:55:15;;;;;;;34.47;16.10;;;;;;;;;;5095215;28;20505;-64
2022/04/15 00:57:42;;;;;;;39.03;17.33;;;;;;;;;;5089752;28;20450;-65
2022/04/15 01:00:09;;;;;;;31.80;14.10;;;;;;;;;;5090323;28;20126;-64
2022/04/15 01:02:35;;;;;;;46.10;19.27;;;;;;;;;;5090794;28;20485;-65
2022/04/15 01:05:02;;;;;;;31.03;15.27;;;;;;;;;;5089661;28;20082;-64
2022/04/15 01:07:30;;;;;;;35.10;15.43;;;;;;;;;;5089345;28;20040;-64
2022/04/15 01:09:56;;;;;;;42.93;17.37;;;;;;;;;;5094446;28;20042;-65
2022/04/15 01:12:22;;;;;;;30.10;14.40;;;;;;;;;;5102838;28;20039;-65
2022/04/15 01:14:49;;;;;;;30.90;13.13;;;;;;;;;;5087491;28;20472;-64
2022/04/15 01:17:15;;;;;;;42.50;18.67;;;;;;;;;;5097230;28;20047;-64
2022/04/15 01:19:42;;;;;;;40.80;17.70;;;;;;;;;;5097452;28;20040;-64
2022/04/15 01:22:18;;;;;;;39.67;18.03;;;;;;;;;;5088704;28;20417;-64
2022/04/15 01:24:44;;;;;;;52.53;19.77;;;;;;;;;;5088835;28;20119;-65
2022/04/15 01:27:10;;;;;;;48.40;20.47;;;;;;;;;;5088982;28;20470;-64
2022/04/15 01:29:40;;;;;;;50.27;20.97;;;;;;;;;;5096842;28;20490;-65
2022/04/15 01:32:07;;;;;;;57.60;21.97;;;;;;;;;;5088042;28;20517;-64
2022/04/15 01:34:36;;;;;;;79.27;26.57;;;;;;;;;;5080539;28;20058;-64
2022/04/15 01:37:04;;;;;;;47.07;21.47;;;;;;;;;;5088204;28;20059;-64
2022/04/15 01:39:31;;;;;;;78.40;26.63;;;;;;;;;;5058881;28;20536;-65
2022/04/15 01:41:57;;;;;;;60.83;24.10;;;;;;;;;;5100074;28;20071;-64
2022/04/15 01:44:24;;;;;;;75.10;29.33;;;;;;;;;;5098720;28;20201;-64
2022/04/15 01:46:50;;;;;;;85.80;30.27;;;;;;;;;;5074596;28;20062;-64
2022/04/15 01:49:16;;;;;;;83.00;32.37;;;;;;;;;;5088455;28;20048;-65
2022/04/15 01:51:42;;;;;;;57.53;25.77;;;;;;;;;;5094718;28;20039;-64
2022/04/15 01:54:08;;;;;;;59.10;24.77;;;;;;;;;;5098542;28;20071;-64
2022/04/15 01:56:34;;;;;;;66.87;27.43;;;;;;;;;;5096751;28;20743;-64
2022/04/15 01:59:00;;;;;;;63.23;27.53;;;;;;;;;;5096633;28;20050;-64
2022/04/15 02:01:26;;;;;;;51.70;25.43;;;;;;;;;;5108564;28;20048;-64
2022/04/15 02:03:52;;;;;;;64.67;27.23;;;;;;;;;;5108470;28;20044;-64
2022/04/15 02:06:18;;;;;;;68.17;28.30;;;;;;;;;;5099910;28;20040;-64
2022/04/15 02:08:44;;;;;;;81.23;30.00;;;;;;;;;;5095338;28;20043;-64
2022/04/15 02:11:10;;;;;;;59.07;26.47;;;;;;;;;;5092541;28;20127;-64
2022/04/15 02:13:36;;;;;;;76.87;29.60;;;;;;;;;;5112577;28;20035;-64
2022/04/15 02:16:02;;;;;;;66.77;26.63;;;;;;;;;;5112242;28;20048;-64
2022/04/15 02:18:28;;;;;;;56.60;24.97;;;;;;;;;;5094552;28;20468;-64
2022/04/15 02:20:54;;;;;;;52.57;23.00;;;;;;;;;;5092452;28;20068;-65
2022/04/15 02:23:20;;;;;;;70.13;27.20;;;;;;;;;;5093936;28;20117;-64
2022/04/15 02:25:46;;;;;;;51.00;23.27;;;;;;;;;;5098816;28;20035;-64
2022/04/15 02:28:12;;;;;;;64.03;26.30;;;;;;;;;;5104597;28;20127;-64
2022/04/15 02:30:38;;;;;;;73.97;25.63;;;;;;;;;;5091606;28;20047;-64
2022/04/15 02:33:04;;;;;;;57.77;24.70;;;;;;;;;;5093602;28;20052;-64
2022/04/15 02:35:30;;;;;;;60.37;23.50;;;;;;;;;;5092431;28;20465;-64
2022/04/15 02:37:56;;;;;;;44.97;21.03;;;;;;;;;;5091812;28;20055;-64
2022/04/15 02:40:22;;;;;;;49.97;21.07;;;;;;;;;;5108068;28;20142;-64
2022/04/15 02:42:48;;;;;;;44.17;22.23;;;;;;;;;;5100954;28;20126;-64
2022/04/15 02:45:14;;;;;;;52.77;22.40;;;;;;;;;;5091587;28;20857;-64
2022/04/15 02:47:41;;;;;;;59.03;23.63;;;;;;;;;;5091966;28;20102;-64
2022/04/15 02:50:07;;;;;;;44.23;18.70;;;;;;;;;;5091519;28;20087;-64
2022/04/15 02:52:34;;;;;;;35.97;18.43;;;;;;;;;;5100154;28;20126;-64
2022/04/15 02:55:00;;;;;;;38.17;18.03;;;;;;;;;;5100045;28;20070;-64
2022/04/15 02:57:26;;;;;;;45.77;21.53;;;;;;;;;;5091733;28;20065;-64
2022/04/15 02:59:52;;;;;;;50.00;20.63;;;;;;;;;;5100231;28;20106;-64
2022/04/15 03:02:18;;;;;;;48.17;19.70;;;;;;;;;;5091759;28;20079;-64
2022/04/15 03:04:44;;;;;;;57.07;20.40;;;;;;;;;;5099674;28;20121;-64
2022/04/15 03:07:10;;;;;;;44.03;18.67;;;;;;;;;;5096635;28;20046;-64
2022/04/15 03:09:35;;;;;;;38.47;19.33;;;;;;;;;;5091811;28;20065;-64
2022/04/15 03:12:02;;;;;;;33.27;17.50;;;;;;;;;;5108373;28;20490;-64
2022/04/15 03:14:28;;;;;;;44.33;20.40;;;;;;;;;;5091472;28;20853;-64
2022/04/15 03:16:54;;;;;;;51.00;20.67;;;;;;;;;;5091530;28;20040;-64
2022/04/15 03:19:20;;;;;;;41.80;18.33;;;;;;;;;;5091404;28;20434;-64
2022/04/15 03:21:46;;;;;;;46.27;20.83;;;;;;;;;;5080300;28;20252;-64
2022/04/15 03:24:12;;;;;;;43.87;18.33;;;;;;;;;;5091116;28;20118;-64
2022/04/15 03:26:38;;;;;;;37.50;17.20;;;;;;;;;;5091240;28;20541;-64
2022/04/15 03:29:04;;;;;;;38.20;17.87;;;;;;;;;;5091315;28;20438;-64
2022/04/15 03:31:30;;;;;;;29.63;14.67;;;;;;;;;;5092419;28;20092;-64
2022/04/15 03:33:56;;;;;;;36.87;18.70;;;;;;;;;;5090381;28;20445;-64
2022/04/15 03:36:22;;;;;;;41.33;17.90;;;;;;;;;;5091043;28;20089;-64
2022/04/15 03:38:48;;;;;;;50.77;19.43;;;;;;;;;;5081209;28;20055;-64
2022/04/15 03:41:14;;;;;;;41.00;18.40;;;;;;;;;;5093684;28;20039;-64
2022/04/15 03:43:40;;;;;;;41.17;17.70;;;;;;;;;;5095975;28;20044;-64
2022/04/15 03:46:07;;;;;;;41.03;17.77;;;;;;;;;;5106043;28;20409;-64
2022/04/15 03:48:33;;;;;;;30.67;15.50;;;;;;;;;;5087458;28;20067;-64
2022/04/15 03:50:59;;;;;;;39.33;18.40;;;;;;;;;;5098325;28;20044;-64
2022/04/15 03:53:25;;;;;;;43.13;17.43;;;;;;;;;;5090736;28;20493;-63
2022/04/15 03:55:52;;;;;;;29.53;15.27;;;;;;;;;;5090307;28;20051;-64
2022/04/15 03:58:18;;;;;;;27.73;15.30;;;;;;;;;;5090916;28;20055;-64
2022/04/15 04:00:44;;;;;;;38.73;18.57;;;;;;;;;;5090689;28;20040;-64
2022/04/15 04:03:10;;;;;;;35.87;17.33;;;;;;;;;;5099202;28;20040;-63
2022/04/15 04:05:36;;;;;;;35.20;17.23;;;;;;;;;;5109329;28;20046;-63
2022/04/15 04:08:02;;;;;;;30.87;15.37;;;;;;;;;;5093348;28;20501;-64
2022/04/15 04:10:29;;;;;;;38.33;17.20;;;;;;;;;;5096341;28;20047;-64
2022/04/15 04:12:55;;;;;;;35.37;18.23;;;;;;;;;;5101112;28;20156;-64
2022/04/15 04:15:21;;;;;;;33.07;15.93;;;;;;;;;;5090497;28;20174;-64
2022/04/15 04:17:48;;;;;;;38.80;18.67;;;;;;;;;;5103287;28;20488;-64
2022/04/15 04:20:16;;;;;;;34.70;16.87;;;;;;;;;;5075105;28;20601;-64
2022/04/15 04:22:42;;;;;;;41.07;17.87;;;;;;;;;;5090415;28;20055;-64
2022/04/15 04:25:08;;;;;;;34.40;15.70;;;;;;;;;;5091918;28;20036;-63
2022/04/15 04:27:38;;;;;;;36.77;16.77;;;;;;;;;;5104218;28;20054;-64
2022/04/15 04:30:05;;;;;;;32.23;16.57;;;;;;;;;;5090084;28;20102;-63
2022/04/15 04:32:31;;;;;;;34.73;16.43;;;;;;;;;;5106169;28;20493;-64
2022/04/15 04:34:57;;;;;;;37.20;16.80;;;;;;;;;;5098412;28;20051;-64
2022/04/15 04:37:23;;;;;;;30.00;16.10;;;;;;;;;;5089408;28;20052;-64
2022/04/15 04:39:49;;;;;;;29.43;15.67;;;;;;;;;;5097272;28;20059;-64
2022/04/15 04:42:15;;;;;;;26.40;15.63;;;;;;;;;;5097918;28;20050;-64
2022/04/15 04:44:42;;;;;;;38.63;18.30;;;;;;;;;;5098204;28;20066;-63
2022/04/15 04:47:09;;;;;;;42.23;17.03;;;;;;;;;;5094325;28;20093;-64
2022/04/15 04:49:35;;;;;;;30.37;15.57;;;;;;;;;;5100688;28;20044;-64
2022/04/15 04:52:02;;;;;;;32.97;16.83;;;;;;;;;;5102908;28;20046;-64
2022/04/15 04:54:28;;;;;;;31.70;15.97;;;;;;;;;;5098500;28;20063;-64
2022/04/15 04:56:54;;;;;;;39.50;16.93;;;;;;;;;;5091987;28;20058;-64
2022/04/15 04:59:22;;;;;;;44.10;17.83;;;;;;;;;;5100106;28;20123;-64
2022/04/15 05:01:48;;;;;;;35.20;18.70;;;;;;;;;;5094137;28;20406;-64
2022/04/15 05:04:14;;;;;;;35.57;17.00;;;;;;;;;;5089901;28;20044;-63
2022/04/15 05:06:40;;;;;;;29.90;16.17;;;;;;;;;;5097558;28;20118;-63
2022/04/15 05:09:06;;;;;;;31.67;17.10;;;;;;;;;;5089410;28;20173;-63
2022/04/15 05:11:32;;;;;;;38.97;16.93;;;;;;;;;;5105166;28;20042;-63
2022/04/15 05:13:58;;;;;;;35.70;17.13;;;;;;;;;;5089406;28;20047;-64
2022/04/15 05:16:24;;;;;;;31.33;15.33;;;;;;;;;;5097358;28;20051;-64
2022/04/15 05:18:50;;;;;;;37.80;16.30;;;;;;;;;;5106636;28;20048;-64
2022/04/15 05:21:16;;;;;;;30.10;14.67;;;;;;;;;;5101127;28;20036;-64
2022/04/15 05:23:42;;;;;;;34.10;15.03;;;;;;;;;;5106017;28;20044;-64
2022/04/15 05:26:08;;;;;;;25.27;14.40;;;;;;;;;;5106398;28;20051;-63
2022/04/15 05:28:36;;;;;;;26.20;13.00;;;;;;;;;;5084817;28;20048;-64
2022/04/15 05:31:05;;;;;;;32.30;15.67;;;;;;;;;;5103548;28;20059;-64
2022/04/15 05:33:31;;;;;;;24.00;13.60;;;;;;;;;;5094227;28;20043;-64
2022/04/15 05:35:57;;;;;;;27.90;14.10;;;;;;;;;;5088836;28;20048;-64
2022/04/15 05:38:23;;;;;;;32.13;14.60;;;;;;;;;;5094801;28;20105;-64
2022/04/15 05:40:49;;;;;;;27.93;14.70;;;;;;;;;;5093878;28;20382;-64
2022/04/15 05:43:16;;;;;;;29.57;13.57;;;;;;;;;;5105142;28;20096;-64
2022/04/15 05:45:42;;;;;;;28.67;16.03;;;;;;;;;;5096694;28;20055;-64
2022/04/15 05:48:08;;;;;;;34.17;16.87;;;;;;;;;;5105570;28;20036;-64
2022/04/15 05:50:34;;;;;;;38.07;16.63;;;;;;;;;;5094050;28;20064;-63
2022/04/15 05:53:00;;;;;;;31.33;16.63;;;;;;;;;;5092628;28;20494;-64
2022/04/15 05:55:26;;;;;;;31.20;15.00;;;;;;;;;;5088721;28;20441;-64
2022/04/15 05:57:52;;;;;;;29.80;16.03;;;;;;;;;;5088145;28;20048;-63
2022/04/15 06:00:19;;;;;;;34.33;15.13;;;;;;;;;;5088785;28;20044;-64
2022/04/15 06:02:45;;;;;;;28.63;15.07;;;;;;;;;;5087839;28;20044;-64
2022/04/15 06:05:11;;;;;;;23.83;15.23;;;;;;;;;;5105020;28;20065;-64
2022/04/15 06:07:37;;;;;;;24.63;14.07;;;;;;;;;;5087759;28;20044;-64
2022/04/15 06:10:04;;;;;;;21.53;13.63;;;;;;;;;;5102062;28;20047;-64
2022/04/15 06:15:22;;;;;;;20.50;13.03;;;;;;;;;;5088469;28;20052;-64
2022/04/15 06:17:49;;;;;;;20.47;12.73;;;;;;;;;;5088095;28;20089;-65
2022/04/15 06:20:15;;;;;;;18.53;11.23;;;;;;;;;;5089323;28;20445;-64
2022/04/15 06:22:44;;;;;;;19.70;11.30;;;;;;;;;;5102522;28;20051;-64
2022/04/15 06:25:11;;;;;;;13.90;10.00;;;;;;;;;;5087860;28;20044;-64
2022/04/15 06:27:37;;;;;;;17.73;9.97;;;;;;;;;;5089178;28;20173;-64
2022/04/15 06:30:04;;;;;;;16.77;10.73;;;;;;;;;;5088020;28;20493;-64
2022/04/15 06:32:30;;;;;;;16.50;10.37;;;;;;;;;;5095195;28;20050;-64
2022/04/15 06:34:56;;;;;;;12.40;9.53;;;;;;;;;;5106248;28;20040;-64
2022/04/15 06:37:22;;;;;;;15.40;9.07;;;;;;;;;;5095973;28;20048;-64
2022/04/15 06:39:50;;;;;;;15.07;9.17;;;;;;;;;;5090816;28;20044;-63
2022/04/15 06:42:36;;;;;;;14.70;8.97;;;;;;;;;;5089018;28;20509;-63
2022/04/15 06:45:02;;;;;;;10.50;8.07;;;;;;;;;;5087798;28;20052;-64
2022/04/15 06:47:28;;;;;;;10.77;7.97;;;;;;;;;;5096135;28;20131;-63
2022/04/15 06:49:54;;;;;;;10.57;7.80;;;;;;;;;;5105776;28;20109;-63
2022/04/15 06:52:21;;;;;;;11.30;7.30;;;;;;;;;;5108511;28;20054;-63
2022/04/15 06:54:47;;;;;;;11.00;7.00;;;;;;;;;;5106899;28;20047;-63
2022/04/15 06:57:13;;;;;;;13.13;6.93;;;;;;;;;;5092544;28;20048;-63
2022/04/15 06:59:39;;;;;;;10.43;7.60;;;;;;;;;;5110973;28;20047;-64
2022/04/15 07:02:06;;;;;;;9.83;6.57;;;;;;;;;;5101780;28;20077;-63
2022/04/15 07:04:32;;;;;;;9.80;6.37;;;;;;;;;;5106747;28;20551;-64
2022/04/15 07:06:59;;;;;;;10.83;6.30;;;;;;;;;;5102224;28;20055;-64
2022/04/15 07:09:25;;;;;;;7.87;6.17;;;;;;;;;;5098571;28;20066;-64
2022/04/15 07:11:51;;;;;;;8.63;5.70;;;;;;;;;;5104376;28;20040;-64
2022/04/15 07:14:18;;;;;;;9.70;5.77;;;;;;;;;;5101579;28;20127;-64
2022/04/15 07:16:44;;;;;;;8.57;5.90;;;;;;;;;;5095497;28;20050;-64
2022/04/15 07:19:10;;;;;;;7.93;5.67;;;;;;;;;;5107649;28;20048;-64
2022/04/15 07:21:37;;;;;;;9.97;5.50;;;;;;;;;;5092449;28;20390;-64
2022/04/15 07:24:03;;;;;;;7.73;4.90;;;;;;;;;;5103846;28;20043;-64
2022/04/15 07:26:30;;;;;;;7.10;4.30;;;;;;;;;;5097114;28;20893;-63
2022/04/15 07:28:56;;;;;;;7.60;4.70;;;;;;;;;;5098723;28;20040;-63
2022/04/15 07:31:22;;;;;;;8.73;4.80;;;;;;;;;;5090768;28;20059;-64
2022/04/15 07:33:48;;;;;;;6.60;4.50;;;;;;;;;;5096215;28;20383;-64
2022/04/15 07:39:00;;;;;;;5.70;4.47;;;;;;;;;;5096976;28;20043;-64
2022/04/15 07:41:26;;;;;;;6.53;4.30;;;;;;;;;;5098841;28;20513;-64
2022/04/15 07:43:52;;;;;;;4.80;4.10;;;;;;;;;;5102737;28;20032;-63
2022/04/15 07:46:18;;;;;;;8.77;4.90;;;;;;;;;;5096890;28;20127;-64
2022/04/15 07:48:44;;;;;;;9.17;4.63;;;;;;;;;;5092805;28;20052;-64
2022/04/15 07:51:11;;;;;;;6.73;4.50;;;;;;;;;;5090928;28;20040;-63
2022/04/15 07:53:37;;;;;;;4.47;3.50;;;;;;;;;;5090832;28;20064;-64
2022/04/15 07:56:03;;;;;;;7.73;4.90;;;;;;;;;;5090822;28;20413;-64
2022/04/15 07:58:30;;;;;;;6.90;4.50;;;;;;;;;;5106512;28;20048;-63
2022/04/15 08:00:59;;;;;;;7.20;4.50;;;;;;;;;;5107255;28;20413;-63
2022/04/15 08:03:26;;;;;;;7.27;4.23;;;;;;;;;;5100829;28;20050;-64
2022/04/15 08:05:52;;;;;;;6.73;4.50;;;;;;;;;;5097585;28;20123;-64
2022/04/15 08:08:18;;;;;;;8.33;4.77;;;;;;;;;;5098889;28;20066;-63
2022/04/15 08:10:44;;;;;;;7.03;4.70;;;;;;;;;;5099169;28;20054;-63
2022/04/15 08:13:10;;;;;;;7.00;4.47;;;;;;;;;;5099650;28;20043;-63
2022/04/15 08:15:36;;;;;;;8.33;4.50;;;;;;;;;;5100618;28;20406;-64
2022/04/15 08:18:02;;;;;;;7.30;4.63;;;;;;;;;;5091103;28;20043;-64
2022/04/15 08:20:28;;;;;;;12.67;5.87;;;;;;;;;;5099248;28;20507;-63
2022/04/15 08:22:54;;;;;;;8.07;5.10;;;;;;;;;;5097285;28;20798;-64
2022/04/15 08:25:20;;;;;;;14.27;6.10;;;;;;;;;;5090179;28;20047;-64
2022/04/15 08:27:46;;;;;;;8.83;5.87;;;;;;;;;;5094119;28;20031;-64
2022/04/15 08:30:12;;;;;;;7.83;5.70;;;;;;;;;;5110636;28;20077;-64
2022/04/15 08:32:38;;;;;;;10.57;7.63;;;;;;;;;;5110459;28;20656;-64
2022/04/15 08:35:06;;;;;;;9.53;6.97;;;;;;;;;;5110569;28;20073;-64
2022/04/15 08:37:33;;;;;;;13.47;7.83;;;;;;;;;;5093633;28;20537;-64
2022/04/15 08:39:59;;;;;;;12.47;7.60;;;;;;;;;;5089992;28;20105;-64
2022/04/15 08:42:26;;;;;;;10.87;7.63;;;;;;;;;;5091595;28;20269;-63
2022/04/15 08:44:53;;;;;;;9.90;7.43;;;;;;;;;;5090319;28;20075;-63
2022/04/15 08:47:19;;;;;;;14.07;8.47;;;;;;;;;;5089349;28;20044;-64
2022/04/15 08:49:46;;;;;;;13.97;7.90;;;;;;;;;;5089812;28;20134;-64
2022/04/15 08:52:15;;;;;;;10.67;7.77;;;;;;;;;;5071567;28;20048;-64
2022/04/15 08:54:41;;;;;;;12.27;6.80;;;;;;;;;;5090017;28;20044;-64
2022/04/15 08:57:07;;;;;;;11.70;7.40;;;;;;;;;;5089198;28;20558;-64
2022/04/15 08:59:34;;;;;;;12.23;8.03;;;;;;;;;;5089249;28;20051;-64
2022/04/15 09:02:00;;;;;;;10.33;7.57;;;;;;;;;;5089478;28;20039;-63
2022/04/15 09:04:26;;;;;;;12.27;8.23;;;;;;;;;;5089724;28;20055;-64
2022/04/15 09:06:56;;;;;;;15.17;8.00;;;;;;;;;;5089550;28;20078;-63
2022/04/15 09:09:29;;;;;;;11.17;8.03;;;;;;;;;;5103863;28;20083;-63
2022/04/15 09:11:56;;;;;;;12.27;7.10;;;;;;;;;;5109414;28;20413;-63
2022/04/15 09:14:23;;;;;;;11.47;7.43;;;;;;;;;;5109453;28;20118;-63
2022/04/15 09:16:49;;;;;;;13.17;7.40;;;;;;;;;;5109455;28;20073;-63
2022/04/15 09:19:16;;;;;;;14.13;8.37;;;;;;;;;;5108759;28;20046;-64
2022/04/15 09:21:44;;;;;;;11.47;7.87;;;;;;;;;;5108721;28;20047;-64
2022/04/15 09:24:11;;;;;;;12.57;7.90;;;;;;;;;;5100352;28;20045;-64
2022/04/15 09:26:38;;;;;;;17.67;8.60;;;;;;;;;;5109341;28;20104;-64
2022/04/15 09:29:04;;;;;;;16.00;7.80;;;;;;;;;;5091216;28;20846;-63
2022/04/15 09:31:30;;;;;;;13.20;8.40;;;;;;;;;;5109269;28;20040;-63
2022/04/15 09:34:03;;;;;;;11.87;7.97;;;;;;;;;;5108099;28;20398;-64
2022/04/15 09:36:30;;;;;;;11.07;7.63;;;;;;;;;;5107329;28;20059;-63
2022/04/15 09:39:10;;;;;;;14.93;8.83;;;;;;;;;;5090467;28;20031;-64
2022/04/15 09:41:36;;;;;;;14.67;8.33;;;;;;;;;;5108112;28;20510;-64
2022/04/15 09:44:03;;;;;;;11.73;8.30;;;;;;;;;;5108376;28;20132;-63
2022/04/15 09:46:30;;;;;;;12.20;8.27;;;;;;;;;;5090156;28;20051;-64
2022/04/15 09:49:02;;;;;;;13.73;7.90;;;;;;;;;;5099664;28;20506;-63
2022/04/15 09:51:37;;;;;;;13.10;7.83;;;;;;;;;;5088452;28;20036;-63
2022/04/15 09:54:06;;;;;;;13.60;7.57;;;;;;;;;;5088453;28;20051;-63
2022/04/15 09:56:33;;;;;;;14.80;8.47;;;;;;;;;;5088708;28;20040;-64
2022/04/15 09:59:03;;;;;;;18.43;8.67;;;;;;;;;;5070549;28;20044;-64
2022/04/15 10:01:30;;;;;;;11.03;7.60;;;;;;;;;;5088237;28;20052;-64
2022/04/15 10:03:56;;;;;;;14.83;7.47;;;;;;;;;;5088685;28;20044;-64
2022/04/15 10:06:23;;;;;;;12.03;6.90;;;;;;;;;;5088811;28;20047;-64
2022/04/15 10:08:49;;;;;;;13.17;7.20;;;;;;;;;;5088419;28;20124;-64
2022/04/15 10:11:15;;;;;;;12.17;6.33;;;;;;;;;;5088778;28;20044;-63
2022/04/15 10:13:45;;;;;;;13.73;6.97;;;;;;;;;;5088712;28;20167;-64
2022/04/15 10:16:11;;;;;;;13.40;6.77;;;;;;;;;;5089265;28;20039;-63
2022/04/15 10:18:38;;;;;;;12.53;7.00;;;;;;;;;;5108659;28;20413;-64
2022/04/15 10:21:06;;;;;;;11.57;5.97;;;;;;;;;;5090245;28;20079;-64
2022/04/15 10:23:33;;;;;;;11.03;6.10;;;;;;;;;;5108877;28;20078;-65
2022/04/15 10:26:01;;;;;;;10.80;5.77;;;;;;;;;;5108753;28;20409;-63
2022/04/15 10:28:44;;;;;;;9.97;5.30;;;;;;;;;;5097384;28;20471;-64
2022/04/15 10:31:12;;;;;;;9.90;5.30;;;;;;;;;;5099947;28;20446;-64
2022/04/15 10:33:41;;;;;;;9.07;5.43;;;;;;;;;;5092949;28;20040;-64
2022/04/15 10:36:14;;;;;;;10.80;5.77;;;;;;;;;;5094163;28;20060;-64
2022/04/15 10:38:59;;;;;;;8.38;4.40;;;;;;;;;;5111408;28;20059;-64
2022/04/15 10:41:25;;;;;;;13.80;5.13;;;;;;;;;;5094277;28;20126;-64
2022/04/15 10:43:57;;;;;;;7.27;4.37;;;;;;;;;;5091944;28;20131;-64
2022/04/15 10:46:36;;;;;;;9.77;5.27;;;;;;;;;;5098623;28;20067;-64
2022/04/15 10:49:02;;;;;;;9.00;4.93;;;;;;;;;;5099681;28;20142;-64
2022/04/15 10:51:30;;;;;;;7.67;4.40;;;;;;;;;;5090497;28;20043;-64
2022/04/15 10:54:16;;;;;;;11.10;4.70;;;;;;;;;;5102509;28;20089;-64
2022/04/15 10:57:02;;;;;;;6.33;4.03;;;;;;;;;;5103769;28;20050;-64
2022/04/15 11:02:17;;;;;;;7.73;4.40;;;;;;;;;;5099044;28;20040;-64
2022/04/15 11:04:47;;;;;;;6.87;4.30;;;;;;;;;;5098185;28;20079;-64
2022/04/15 11:07:36;;;;;;;7.73;4.53;;;;;;;;;;5096054;28;20063;-64
2022/04/15 11:13:30;;;;;;;5.87;3.90;;;;;;;;;;5090497;28;20669;-63
2022/04/15 11:16:02;;;;;;;6.88;3.80;;;;;;;;;;5097893;28;20056;-64
2022/04/15 11:18:46;;;;;;;8.67;4.57;;;;;;;;;;5100975;28;20139;-64
2022/04/15 11:21:17;;;;;;;5.73;3.70;;;;;;;;;;5102883;28;20171;-64
2022/04/15 11:24:11;;;;;;;7.60;4.13;;;;;;;;;;5094548;28;20614;-64
2022/04/15 11:26:38;;;;;;;6.80;3.77;;;;;;;;;;5072633;28;20066;-64
2022/04/15 11:29:06;;;;;;;10.33;4.17;;;;;;;;;;5093864;28;20094;-64
2022/04/15 11:31:33;;;;;;;9.67;4.50;;;;;;;;;;5095710;28;20036;-64
2022/04/15 11:34:13;;;;;;;9.03;4.13;;;;;;;;;;5098296;28;20039;-65
2022/04/15 11:36:40;;;;;;;9.50;4.53;;;;;;;;;;5100187;28;20047;-64
2022/04/15 11:39:07;;;;;;;9.27;4.13;;;;;;;;;;5096389;28;20040;-64
2022/04/15 11:41:33;;;;;;;7.03;3.67;;;;;;;;;;5098937;28;20055;-64
2022/04/15 11:44:05;;;;;;;9.37;3.70;;;;;;;;;;5100640;28;20055;-64
2022/04/15 11:46:51;;;;;;;5.23;3.47;;;;;;;;;;5092476;28;20583;-64
2022/04/15 11:49:21;;;;;;;7.57;3.97;;;;;;;;;;5101251;28;20040;-64
2022/04/15 11:51:51;;;;;;;8.27;4.00;;;;;;;;;;5095785;28;20104;-64
2022/04/15 11:54:21;;;;;;;7.13;4.03;;;;;;;;;;5106889;28;20047;-64
2022/04/15 11:56:47;;;;;;;7.87;4.60;;;;;;;;;;5105033;28;20040;-64
2022/04/15 11:59:13;;;;;;;5.87;4.13;;;;;;;;;;5089648;28;20131;-64
2022/04/15 12:01:39;;;;;;;9.40;3.90;;;;;;;;;;5102934;28;20470;-64
2022/04/15 12:04:06;;;;;;;7.73;4.50;;;;;;;;;;5097894;28;20112;-64
2022/04/15 12:06:32;;;;;;;6.93;3.87;;;;;;;;;;5095176;28;20044;-65
2022/04/15 12:08:59;;;;;;;8.20;3.97;;;;;;;;;;5104186;28;20047;-64
2022/04/15 12:11:25;;;;;;;8.30;4.37;;;;;;;;;;5109435;28;20071;-64
2022/04/15 12:14:02;;;;;;;8.37;4.07;;;;;;;;;;5072719;28;20048;-64
2022/04/15 12:16:29;;;;;;;9.40;3.97;;;;;;;;;;5090148;28;20433;-64
2022/04/15 12:18:56;;;;;;;5.30;3.57;;;;;;;;;;5071598;28;20520;-64
2022/04/15 12:21:23;;;;;;;6.47;4.17;;;;;;;;;;5089699;28;20044;-64
2022/04/15 12:24:30;;;;;;;5.40;3.60;;;;;;;;;;5095380;28;20052;-63
2022/04/15 12:26:56;;;;;;;8.30;3.80;;;;;;;;;;5007938;28;20425;-64
2022/04/15 12:32:22;;;;;;;7.33;4.10;;;;;;;;;;5109493;28;20091;-64
2022/04/15 12:35:09;;;;;;;5.67;3.97;;;;;;;;;;5107113;28;20046;-64
2022/04/15 12:37:50;;;;;;;6.90;3.63;;;;;;;;;;5108620;28;20058;-64
2022/04/15 12:40:17;;;;;;;7.17;4.30;;;;;;;;;;5109906;28;20046;-64
2022/04/15 12:42:45;;;;;;;7.17;3.40;;;;;;;;;;5109123;28;20401;-66
2022/04/15 12:45:12;;;;;;;5.73;3.63;;;;;;;;;;5110275;28;20728;-64
2022/04/15 12:47:38;;;;;;;5.83;4.03;;;;;;;;;;5108355;28;20036;-64
2022/04/15 12:50:23;;;;;;;7.97;3.57;;;;;;;;;;5110099;28;20435;-64
2022/04/15 12:52:49;;;;;;;7.97;4.33;;;;;;;;;;5109298;28;20031;-64
2022/04/15 12:55:24;;;;;;;5.93;3.90;;;;;;;;;;5109443;28;20140;-64
2022/04/15 12:57:51;;;;;;;6.97;3.83;;;;;;;;;;5106696;28;20039;-64
2022/04/15 13:00:17;;;;;;;5.93;3.70;;;;;;;;;;5089578;28;20105;-64
2022/04/15 13:02:43;;;;;;;6.90;4.20;;;;;;;;;;5088886;28;20048;-64
2022/04/15 13:05:10;;;;;;;8.93;4.60;;;;;;;;;;5076272;28;20055;-64
2022/04/15 13:07:37;;;;;;;7.87;4.50;;;;;;;;;;5089056;28;20040;-65
2022/04/15 13:10:04;;;;;;;6.83;4.23;;;;;;;;;;5107024;28;20075;-64
2022/04/15 13:12:30;;;;;;;8.00;4.73;;;;;;;;;;5109095;28;20035;-64
2022/04/15 13:14:56;;;;;;;7.67;4.33;;;;;;;;;;5107742;28;20048;-64
2022/04/15 13:17:22;;;;;;;7.50;4.07;;;;;;;;;;5109620;28;20044;-64
2022/04/15 13:19:49;;;;;;;6.50;4.13;;;;;;;;;;5108159;28;20055;-64
2022/04/15 13:22:16;;;;;;;6.40;3.97;;;;;;;;;;5109529;28;20121;-64
2022/04/15 13:24:42;;;;;;;11.50;4.43;;;;;;;;;;5103401;28;20044;-64
2022/04/15 13:27:09;;;;;;;7.80;4.67;;;;;;;;;;5088625;28;20426;-64
2022/04/15 13:29:36;;;;;;;8.47;4.37;;;;;;;;;;5090022;28;20051;-64
2022/04/15 13:32:03;;;;;;;7.23;4.27;;;;;;;;;;5090073;28;20501;-64
2022/04/15 13:34:35;;;;;;;7.23;3.90;;;;;;;;;;5087811;28;20048;-64
2022/04/15 13:37:02;;;;;;;5.25;3.83;;;;;;;;;;5088111;28;20494;-64
2022/04/15 13:39:29;;;;;;;6.07;4.00;;;;;;;;;;5088615;28;20052;-64
2022/04/15 13:41:55;;;;;;;7.77;4.00;;;;;;;;;;5104339;28;20044;-64
2022/04/15 13:44:21;;;;;;;7.67;3.83;;;;;;;;;;5108928;28;20360;-64
2022/04/15 13:46:47;;;;;;;5.37;3.67;;;;;;;;;;5107941;28;20058;-64
2022/04/15 13:49:13;;;;;;;6.00;3.70;;;;;;;;;;5109019;28;20071;-64
2022/04/15 13:51:39;;;;;;;6.00;3.73;;;;;;;;;;5107633;28;20047;-64
2022/04/15 13:56:49;;;;;;;6.70;3.27;;;;;;;;;;5092355;28;20044;-64
2022/04/15 13:59:16;;;;;;;5.13;3.40;;;;;;;;;;5088005;28;20051;-64
2022/04/15 14:01:44;;;;;;;9.00;4.20;;;;;;;;;;5088940;28;20080;-65
2022/04/15 14:04:11;;;;;;;7.37;3.80;;;;;;;;;;5102580;28;20102;-65
2022/04/15 14:06:37;;;;;;;5.87;4.03;;;;;;;;;;5102225;28;20036;-65
2022/04/15 14:09:04;;;;;;;6.97;3.50;;;;;;;;;;5095470;28;20036;-64
2022/04/15 14:11:31;;;;;;;6.77;3.97;;;;;;;;;;5094685;28;20088;-64
2022/04/15 14:13:59;;;;;;;5.63;3.77;;;;;;;;;;5095284;28;20450;-64
2022/04/15 14:16:26;;;;;;;6.40;4.00;;;;;;;;;;5096652;28;20070;-64
2022/04/15 14:18:53;;;;;;;7.63;3.93;;;;;;;;;;5092766;28;20055;-64
2022/04/15 14:21:19;;;;;;;5.10;3.37;;;;;;;;;;5095121;28;20048;-64
2022/04/15 14:23:45;;;;;;;7.57;3.90;;;;;;;;;;5110530;28;20082;-64
2022/04/15 14:26:15;;;;;;;6.73;4.00;;;;;;;;;;5115523;28;20055;-64
2022/04/15 14:28:41;;;;;;;5.00;3.83;;;;;;;;;;5113768;28;20071;-64
2022/04/15 14:31:07;;;;;;;5.77;3.70;;;;;;;;;;5114786;28;20096;-64
2022/04/15 14:33:34;;;;;;;6.33;4.03;;;;;;;;;;5111460;28;20031;-64
2022/04/15 14:36:00;;;;;;;5.37;3.83;;;;;;;;;;5094777;28;20399;-64
2022/04/15 14:38:27;;;;;;;6.50;4.43;;;;;;;;;;5098208;28;20145;-64
2022/04/15 14:40:53;;;;;;;7.30;4.17;;;;;;;;;;5115497;28;20156;-64
2022/04/15 14:43:19;;;;;;;6.33;3.90;;;;;;;;;;5104448;28;20035;-64
2022/04/15 14:45:45;;;;;;;7.40;4.10;;;;;;;;;;5081967;28;20405;-64
2022/04/15 14:48:14;;;;;;;6.20;3.50;;;;;;;;;;5097347;28;20056;-64